Time;durP1;ratioP1;P1;durP2;ratioP2;P2;SDS_P1;SDS_P2;PMS_P1;PMS_P2;Temp;Humidity;BMP_temperature;BMP_pressure;BME280_temperature;BME280_humidity;BME280_pressure;Samples;Min_cycle;Max_cycle;Signal;HPM_P1;HPM_P2
2022/02/07 04:38:28;;;;;;;4.03;2.10;;;;;;;6.69;61.03;98590.81;6899895;28;20272;-83
2022/02/07 04:41:53;;;;;;;1.83;1.73;;;;;;;7.05;59.88;98632.72;6910522;28;20239;-83
2022/02/07 04:45:32;;;;;;;1.80;1.70;;;;;;;6.57;60.62;98606.53;6900108;28;20228;-83
2022/02/07 04:49:22;;;;;;;2.57;1.80;;;;;;;6.70;60.04;98624.59;6899163;28;20269;-84
2022/02/07 04:53:10;;;;;;;2.60;1.70;;;;;;;6.51;61.27;98682.25;6889705;28;20689;-83
2022/02/07 05:00:28;;;;;;;2.50;1.80;;;;;;;6.55;60.66;98663.97;6873543;28;20190;-83
2022/02/07 05:03:54;;;;;;;3.03;1.90;;;;;;;6.27;60.89;98662.91;6872331;28;20248;-82
2022/02/07 05:14:43;;;;;;;1.90;1.80;;;;;;;6.81;58.83;98693.81;6899610;28;20575;-83
2022/02/07 05:18:06;;;;;;;1.90;1.80;;;;;;;7.35;59.00;98772.94;6881762;28;20208;-83
2022/02/07 05:21:27;;;;;;;2.70;1.83;;;;;;;7.00;58.08;98723.56;6874135;28;20231;-83
2022/02/07 05:24:50;;;;;;;2.00;1.90;;;;;;;6.99;58.19;98715.72;6872220;28;20321;-83
2022/02/07 05:28:12;;;;;;;4.00;2.10;;;;;;;7.42;57.91;98798.81;6875262;28;20221;-83
2022/02/07 05:31:33;;;;;;;2.07;1.90;;;;;;;7.19;58.31;98795.41;6874196;28;20238;-84
2022/02/07 05:34:55;;;;;;;3.83;2.00;;;;;;;7.17;58.21;98820.72;6872185;28;20671;-83
2022/02/07 05:38:17;;;;;;;4.27;2.30;;;;;;;7.08;58.09;98813.81;6870964;28;20211;-83
2022/02/07 05:41:40;;;;;;;2.50;2.30;;;;;;;6.85;58.35;98843.31;6879704;28;20709;-82
2022/02/07 05:45:02;;;;;;;4.43;2.50;;;;;;;6.72;58.34;98839.59;6887948;28;20227;-83
2022/02/07 05:48:23;;;;;;;5.13;2.37;;;;;;;6.95;57.57;98829.69;6896979;28;20581;-84
2022/02/07 05:51:45;;;;;;;6.10;2.40;;;;;;;6.81;57.62;98842.03;6897497;28;20310;-83
2022/02/07 05:55:07;;;;;;;4.00;2.50;;;;;;;6.66;57.47;98797.44;6900416;28;20208;-86
2022/02/07 05:58:30;;;;;;;2.60;2.10;;;;;;;6.37;57.56;98787.44;6883824;28;20215;-83
2022/02/07 06:01:52;;;;;;;3.20;2.23;;;;;;;7.03;57.34;98862.59;6885478;28;20217;-86
2022/02/07 06:05:14;;;;;;;3.77;2.27;;;;;;;6.82;56.81;98848.19;6886447;28;20304;-87
2022/02/07 06:08:35;;;;;;;5.07;2.13;;;;;;;6.84;57.13;98902.47;6885462;28;20218;-86
2022/02/07 06:11:57;;;;;;;5.43;2.10;;;;;;;6.74;57.05;98905.38;6885171;28;20552;-85
2022/02/07 06:15:20;;;;;;;5.50;2.60;;;;;;;6.83;56.24;98841.84;6898794;28;20206;-85
2022/02/07 06:18:42;;;;;;;5.23;2.57;;;;;;;7.12;55.75;98882.09;6900537;28;20239;-84
2022/02/07 06:22:04;;;;;;;3.70;2.63;;;;;;;7.04;56.85;98899.13;6900726;28;20231;-85
2022/02/07 06:25:25;;;;;;;2.13;2.00;;;;;;;7.46;55.70;98904.75;6899351;28;20232;-85
2022/02/07 06:28:48;;;;;;;2.80;2.40;;;;;;;7.17;55.62;98906.53;6900177;28;20206;-84
2022/02/07 06:32:12;;;;;;;6.53;2.77;;;;;;;7.18;55.28;98905.53;6899322;28;20281;-84
2022/02/07 06:35:34;;;;;;;7.23;2.43;;;;;;;7.35;55.83;98948.09;6897005;28;20674;-85
2022/02/07 06:38:55;;;;;;;6.43;2.13;;;;;;;6.98;55.43;98886.44;6898026;28;20215;-85
2022/02/07 06:42:19;;;;;;;12.50;11.03;;;;;;;7.55;55.88;98983.28;6897146;28;20227;-84
2022/02/07 06:45:40;;;;;;;12.00;6.50;;;;;;;7.43;55.59;98990.94;6884138;28;20231;-85
2022/02/07 06:49:03;;;;;;;3.83;2.83;;;;;;;7.34;55.85;98978.63;6884681;28;20204;-86
2022/02/07 06:52:25;;;;;;;5.13;2.97;;;;;;;7.58;55.75;98996.34;6880722;28;20229;-86
2022/02/07 06:55:48;;;;;;;6.13;2.60;;;;;;;7.37;55.80;99033.75;6911552;28;20226;-84
2022/02/07 06:59:40;;;;;;;5.07;2.17;;;;;;;7.75;55.64;99041.63;6895591;28;20218;-85
2022/02/07 07:41:47;;;;;;;5.33;2.57;;;;;;;7.40;54.81;99062.88;6855687;28;20226;-89
2022/02/07 07:45:10;;;;;;;7.60;3.20;;;;;;;7.45;54.34;99041.72;6901884;28;20703;-87
2022/02/07 07:48:34;;;;;;;3.37;2.40;;;;;;;7.73;54.20;99140.25;6887864;28;20207;-89
2022/02/07 07:52:02;;;;;;;6.93;2.77;;;;;;;8.04;54.26;99151.78;6878889;28;20263;-86
2022/02/07 08:01:13;;;;;;;6.47;2.57;;;;;;;8.21;53.92;99150.66;6866872;28;20240;-85
2022/02/07 08:02:48;;;;;;;4.20;2.20;;;;;;;8.01;53.61;99172.78;6874153;28;20313;-86
2022/02/07 08:06:14;;;;;;;4.73;2.80;;;;;;;8.67;52.60;99170.19;6893202;28;20232;-85
2022/02/07 08:09:47;;;;;;;5.27;2.33;;;;;;;8.63;52.61;99185.84;6868499;28;20299;-86
2022/02/07 08:13:15;;;;;;;6.17;3.03;;;;;;;8.49;52.63;99175.06;6867957;28;20234;-85
2022/02/07 08:16:38;;;;;;;5.17;2.70;;;;;;;8.18;53.11;99174.31;6867711;28;20217;-85
2022/02/07 08:20:00;;;;;;;6.37;3.33;;;;;;;8.05;53.80;99207.16;6877178;28;20221;-86
2022/02/07 08:23:22;;;;;;;9.77;3.57;;;;;;;7.90;52.67;99096.19;6894998;28;20315;-85
2022/02/07 08:26:43;;;;;;;3.37;2.50;;;;;;;7.66;51.94;99176.88;6895684;28;20317;-85
2022/02/07 08:30:07;;;;;;;5.30;2.40;;;;;;;8.49;51.98;99178.56;6895852;28;20204;-86
2022/02/07 08:33:30;;;;;;;6.27;2.87;;;;;;;7.48;53.11;99154.88;6871233;28;20223;-86
2022/02/07 08:36:53;;;;;;;9.17;2.93;;;;;;;8.06;53.34;99218.72;6868980;28;20197;-86
2022/02/07 08:40:14;;;;;;;5.43;2.70;;;;;;;7.81;53.21;99231.47;6885696;28;20286;-88
2022/02/07 08:43:36;;;;;;;6.10;2.30;;;;;;;7.29;53.73;99192.00;6886820;28;20204;-84
2022/02/07 08:46:59;;;;;;;5.03;2.40;;;;;;;7.89;54.05;99260.13;6885824;28;21107;-86
2022/02/07 08:50:22;;;;;;;3.97;2.30;;;;;;;7.96;51.82;99181.38;6885789;28;20212;-88
2022/02/07 08:53:46;;;;;;;7.10;2.53;;;;;;;8.87;51.33;99265.41;6879109;28;20569;-86
2022/02/07 08:57:21;;;;;;;9.83;2.83;;;;;;;9.66;48.37;99260.94;6883000;28;20311;-88
2022/02/07 09:00:49;;;;;;;4.57;2.40;;;;;;;9.54;49.13;99217.53;6891907;28;20223;-89
2022/02/07 09:08:06;;;;;;;7.43;3.33;;;;;;;9.09;49.25;99287.69;6868177;28;20622;-87
2022/02/07 09:11:38;;;;;;;6.50;2.60;;;;;;;8.87;50.56;99297.66;6873532;28;20257;-87
2022/02/07 09:15:07;;;;;;;4.57;2.33;;;;;;;8.84;49.73;99218.19;6876436;28;20247;-91
2022/02/07 09:18:28;;;;;;;4.07;2.23;;;;;;;8.46;50.86;99307.09;6876621;28;20208;-89
2022/02/07 09:21:50;;;;;;;4.47;2.20;;;;;;;8.20;53.47;99330.78;6886409;28;20266;-88
2022/02/07 09:25:13;;;;;;;4.57;2.40;;;;;;;8.52;51.84;99298.31;6890098;28;20225;-89
2022/02/07 09:28:35;;;;;;;4.23;2.43;;;;;;;8.12;52.37;99318.19;6884649;28;20208;-88
2022/02/07 09:31:57;;;;;;;7.20;2.73;;;;;;;8.05;51.81;99295.75;6877237;28;20706;-89
2022/02/07 09:35:21;;;;;;;5.13;2.73;;;;;;;8.36;52.37;99352.19;6871662;28;20202;-87
2022/02/07 09:43:12;;;;;;;12.87;2.53;;;;;;;8.26;51.67;99287.91;6865504;28;20589;-89
2022/02/07 09:46:43;;;;;;;4.87;2.40;;;;;;;9.42;50.63;99358.13;6870495;28;20259;-86
2022/02/07 09:50:06;;;;;;;7.27;2.80;;;;;;;8.88;50.45;99345.03;6889701;28;20739;-88
2022/02/07 09:53:28;;;;;;;11.00;3.17;;;;;;;9.14;50.15;99368.69;6881206;28;20208;-89
2022/02/07 09:56:50;;;;;;;5.20;2.47;;;;;;;9.10;49.96;99377.31;6886616;28;20215;-89
2022/02/07 10:00:19;;;;;;;5.50;2.63;;;;;;;9.58;47.78;99364.16;6890492;28;20212;-89
2022/02/07 10:03:49;;;;;;;6.50;2.93;;;;;;;9.95;48.05;99400.94;6890313;28;20553;-85
2022/02/07 10:07:19;;;;;;;11.37;2.50;;;;;;;9.62;48.43;99405.88;6889199;28;20211;-89
2022/02/07 10:10:59;;;;;;;8.40;2.80;;;;;;;9.66;47.42;99349.78;6886524;28;20243;-89
2022/02/07 10:14:25;;;;;;;6.13;2.30;;;;;;;10.43;46.06;99411.97;6863645;28;20247;-88
2022/02/07 10:18:00;;;;;;;5.70;2.53;;;;;;;9.60;48.32;99409.75;6873465;28;20207;-88
2022/02/07 10:21:36;;;;;;;5.17;2.73;;;;;;;9.72;47.71;99422.59;6889307;28;20224;-88
2022/02/07 10:36:36;;;;;;;3.50;2.40;;;;;;;9.67;47.69;99434.91;6847033;28;20237;-86
2022/02/07 10:40:18;;;;;;;6.13;3.33;;;;;;;9.76;46.66;99404.22;6859266;28;20289;-85
2022/02/07 10:43:57;;;;;;;8.40;2.50;;;;;;;10.15;46.63;99443.34;6859747;28;20264;-86
2022/02/07 10:47:23;;;;;;;5.43;2.53;;;;;;;10.34;46.40;99441.94;6861077;28;20216;-88
2022/02/07 10:51:07;;;;;;;7.17;2.83;;;;;;;9.89;45.28;99456.41;6861186;28;20320;-87
2022/02/07 10:54:30;;;;;;;7.70;3.20;;;;;;;9.97;45.39;99459.00;6846813;28;20209;-85
2022/02/07 10:57:54;;;;;;;6.87;2.77;;;;;;;9.78;46.42;99478.41;6827509;29;20209;-82
2022/02/07 11:01:20;;;;;;;7.53;3.30;;;;;;;10.39;45.76;99488.03;6823825;29;20741;-82
2022/02/07 11:04:47;;;;;;;6.87;4.23;;;;;;;10.25;45.68;99497.78;6832687;29;20400;-83
2022/02/07 11:08:27;;;;;;;6.30;4.33;;;;;;;10.66;45.46;99496.25;6836064;29;20219;-82
2022/02/07 11:15:34;;;;;;;10.57;6.83;;;;;;;10.10;45.63;99528.44;6892996;28;20200;-84
2022/02/07 11:19:06;;;;;;;11.03;5.50;;;;;;;9.95;45.42;99527.56;6906485;28;20208;-84
2022/02/07 11:26:34;;;;;;;9.67;5.17;;;;;;;9.79;45.10;99557.31;6888937;28;20224;-85
2022/02/07 11:29:58;;;;;;;6.93;3.43;;;;;;;9.92;45.01;99568.34;6887467;28;20228;-84
2022/02/07 11:33:49;;;;;;;10.57;6.10;;;;;;;9.81;45.48;99563.38;6888229;28;20235;-85
2022/02/07 11:37:17;;;;;;;12.90;5.27;;;;;;;9.87;45.75;99578.81;6888302;28;20228;-85
2022/02/07 11:40:40;;;;;;;5.93;3.50;;;;;;;9.73;45.08;99591.22;6887634;28;20285;-85
2022/02/07 11:44:02;;;;;;;8.63;3.20;;;;;;;9.43;45.37;99535.59;6887950;28;20291;-84
2022/02/07 11:47:28;;;;;;;7.70;2.93;;;;;;;9.73;44.96;99617.28;6890558;28;20306;-89
2022/02/07 11:50:54;;;;;;;6.10;2.67;;;;;;;9.83;45.38;99615.19;6888825;28;20297;-89
2022/02/07 11:54:24;;;;;;;12.17;4.57;;;;;;;10.14;45.34;99629.44;6872502;28;20658;-86
2022/02/07 11:57:53;;;;;;;6.07;3.40;;;;;;;9.91;46.21;99647.44;6863901;28;20209;-86
2022/02/07 12:01:17;;;;;;;7.33;2.90;;;;;;;9.66;45.30;99649.50;6869866;28;20291;-85
2022/02/07 12:04:42;;;;;;;4.97;2.83;;;;;;;9.55;45.36;99654.44;6868648;28;20233;-85
2022/02/07 12:08:06;;;;;;;4.80;2.70;;;;;;;9.66;45.88;99665.66;6868810;28;20343;-81
2022/02/07 12:11:43;;;;;;;6.70;2.40;;;;;;;9.69;44.84;99641.03;6865699;28;20235;-81
2022/02/07 12:15:06;;;;;;;5.40;2.50;;;;;;;9.83;45.12;99663.69;6869394;28;20208;-82
2022/02/07 12:18:27;;;;;;;8.10;2.70;;;;;;;9.34;46.20;99643.47;6872230;28;20216;-82
2022/02/07 12:21:54;;;;;;;7.20;2.93;;;;;;;9.64;45.91;99670.38;6888491;28;20213;-81
2022/02/07 12:25:22;;;;;;;6.83;4.13;;;;;;;9.56;46.14;99683.06;6867925;28;20400;-82
2022/02/07 12:28:47;;;;;;;9.73;6.60;;;;;;;9.42;46.67;99660.44;6865163;28;20654;-82
2022/02/07 12:32:09;;;;;;;5.73;4.03;;;;;;;9.74;45.87;99689.81;6865511;28;20240;-82
2022/02/07 12:35:31;;;;;;;4.33;2.53;;;;;;;9.84;45.03;99693.13;6863991;28;20208;-82
2022/02/07 12:38:55;;;;;;;9.83;4.27;;;;;;;10.04;45.69;99688.97;6884079;28;20216;-84
2022/02/07 12:42:17;;;;;;;8.57;2.77;;;;;;;9.88;46.33;99688.22;6893467;28;20231;-82
2022/02/07 12:45:39;;;;;;;5.00;3.20;;;;;;;10.60;44.61;99683.09;6893060;28;20295;-83
2022/02/07 12:49:08;;;;;;;9.10;3.90;;;;;;;10.35;44.54;99681.66;6876888;28;20665;-84
2022/02/07 12:52:34;;;;;;;6.73;3.07;;;;;;;10.09;44.51;99696.53;6893882;28;20250;-83
2022/02/07 12:56:04;;;;;;;5.07;2.70;;;;;;;10.08;45.03;99698.38;6874685;28;20197;-82
2022/02/07 12:59:26;;;;;;;7.43;3.30;;;;;;;10.65;44.10;99699.56;6867481;28;20197;-82
2022/02/07 13:02:49;;;;;;;7.07;2.70;;;;;;;10.74;43.71;99697.63;6866943;28;20239;-82
2022/02/07 13:06:14;;;;;;;10.03;3.20;;;;;;;9.97;44.71;99690.69;6866901;28;20541;-82
2022/02/07 13:09:42;;;;;;;6.07;2.47;;;;;;;10.09;44.24;99696.53;6867334;28;20213;-81
2022/02/07 13:13:27;;;;;;;6.93;2.80;;;;;;;10.26;44.47;99698.03;6882771;28;20687;-79
2022/02/07 13:16:49;;;;;;;3.57;2.80;;;;;;;10.33;43.86;99699.84;6920411;28;20199;-80
2022/02/07 13:20:12;;;;;;;6.80;2.80;;;;;;;9.93;45.27;99675.06;6921077;28;20218;-81
2022/02/07 13:23:42;;;;;;;8.87;2.37;;;;;;;9.84;44.44;99694.97;6903912;28;20204;-80
2022/02/07 13:27:06;;;;;;;5.70;2.10;;;;;;;9.85;45.33;99718.19;6894203;28;20285;-82
2022/02/07 13:30:29;;;;;;;2.47;2.20;;;;;;;9.97;44.89;99714.91;6899445;28;20782;-82
2022/02/07 13:33:53;;;;;;;4.97;2.70;;;;;;;9.60;45.55;99738.22;6899990;28;20628;-82
2022/02/07 13:37:17;;;;;;;6.93;2.53;;;;;;;10.12;45.46;99715.88;6902385;28;20204;-83
2022/02/07 13:40:40;;;;;;;7.23;2.60;;;;;;;10.61;44.10;99732.44;6902438;28;20246;-82
2022/02/07 13:44:02;;;;;;;6.73;3.27;;;;;;;10.15;45.27;99730.84;6900328;28;20298;-83
2022/02/07 13:47:26;;;;;;;8.13;3.23;;;;;;;9.76;45.97;99736.28;6891166;28;20956;-82
2022/02/07 13:50:49;;;;;;;4.20;2.73;;;;;;;9.59;46.70;99739.22;6867280;28;20252;-83
2022/02/07 13:54:11;;;;;;;4.83;2.70;;;;;;;9.55;47.00;99752.22;6879255;28;20667;-82
2022/02/07 13:57:33;;;;;;;4.83;2.83;;;;;;;9.47;46.83;99760.34;6880874;28;20204;-82
2022/02/07 14:00:59;;;;;;;3.47;2.30;;;;;;;9.45;47.51;99734.59;6883014;28;20225;-81
2022/02/07 14:04:25;;;;;;;5.50;2.67;;;;;;;9.69;45.80;99754.16;6895289;28;20204;-82
2022/02/07 14:07:51;;;;;;;5.17;2.80;;;;;;;9.62;46.94;99738.91;6883422;28;20229;-82
2022/02/07 14:11:13;;;;;;;3.33;2.73;;;;;;;9.18;46.36;99765.50;6874211;28;20310;-82
2022/02/07 14:14:35;;;;;;;7.70;3.10;;;;;;;9.84;46.37;99778.47;6889150;28;20254;-82
2022/02/07 14:17:56;;;;;;;2.93;2.57;;;;;;;9.87;45.62;99726.97;6884820;28;20205;-81
2022/02/07 14:21:21;;;;;;;5.63;2.83;;;;;;;9.56;46.15;99763.84;6879256;28;20698;-82
2022/02/07 14:24:43;;;;;;;5.57;3.37;;;;;;;9.67;46.65;99771.50;6874905;28;20683;-82
2022/02/07 14:28:06;;;;;;;9.27;3.27;;;;;;;9.44;46.54;99768.75;6876840;28;20239;-82
2022/02/07 14:31:29;;;;;;;7.67;3.20;;;;;;;9.74;45.92;99772.50;6880083;28;20244;-82
2022/02/07 14:34:50;;;;;;;22.93;12.60;;;;;;;9.87;45.17;99783.53;6875648;28;20275;-82
2022/02/07 14:38:13;;;;;;;7.80;3.10;;;;;;;9.89;46.08;99789.56;6888173;28;20547;-82
2022/02/07 14:41:36;;;;;;;8.97;5.83;;;;;;;9.25;45.87;99711.78;6917065;28;20232;-83
2022/02/07 14:45:08;;;;;;;3.83;2.50;;;;;;;9.70;44.92;99779.22;6917212;28;20411;-81
2022/02/07 14:48:30;;;;;;;3.63;2.27;;;;;;;9.57;45.95;99776.28;6924248;28;20213;-82
2022/02/07 14:51:52;;;;;;;3.57;2.30;;;;;;;9.96;45.51;99801.31;6917411;28;20251;-82
2022/02/07 14:55:15;;;;;;;5.93;2.70;;;;;;;9.88;45.21;99783.34;6862588;28;20208;-82
2022/02/07 14:58:37;;;;;;;8.40;2.60;;;;;;;9.98;45.22;99800.09;6862518;28;20216;-81
2022/02/07 15:01:59;;;;;;;4.57;2.60;;;;;;;9.57;46.28;99798.63;6861753;28;20237;-82
2022/02/07 15:05:21;;;;;;;10.30;2.60;;;;;;;9.57;46.01;99811.28;6861224;28;20588;-81
2022/02/07 15:08:42;;;;;;;6.57;2.53;;;;;;;9.24;46.37;99809.69;6864747;28;20204;-82
2022/02/07 15:12:06;;;;;;;6.90;2.50;;;;;;;9.24;46.49;99813.22;6881943;28;20470;-81
2022/02/07 15:15:27;;;;;;;3.77;2.40;;;;;;;9.55;46.43;99816.81;6886782;28;20266;-83
2022/02/07 15:18:51;;;;;;;9.27;3.20;;;;;;;9.76;45.58;99805.47;6887196;28;20284;-82
2022/02/07 15:22:12;;;;;;;4.70;2.63;;;;;;;9.55;46.27;99816.81;6876239;28;20227;-82
2022/02/07 15:25:35;;;;;;;6.27;2.20;;;;;;;9.71;45.30;99824.84;6863598;28;20232;-82
2022/02/07 15:28:59;;;;;;;9.13;2.90;;;;;;;9.32;44.24;99750.44;6902400;28;20206;-81
2022/02/07 15:32:24;;;;;;;6.30;2.80;;;;;;;10.06;44.76;99842.38;6900025;28;20285;-82
2022/02/07 15:35:48;;;;;;;6.77;2.90;;;;;;;9.60;45.37;99810.91;6902939;28;20211;-82
2022/02/07 15:39:09;;;;;;;3.60;2.23;;;;;;;9.91;45.21;99850.31;6920658;28;20676;-82
2022/02/07 15:42:31;;;;;;;4.90;2.40;;;;;;;9.70;45.18;99847.38;6918899;28;20236;-82
2022/02/07 15:45:54;;;;;;;9.77;3.13;;;;;;;9.33;45.91;99846.34;6884609;28;20237;-82
2022/02/07 15:49:15;;;;;;;8.37;3.27;;;;;;;9.75;46.01;99849.56;6894030;28;20252;-82
2022/02/07 15:52:37;;;;;;;11.10;4.07;;;;;;;9.42;46.38;99870.38;6893822;28;20708;-82
2022/02/07 15:56:00;;;;;;;14.10;6.43;;;;;;;9.25;46.63;99849.03;6893311;28;20291;-81
2022/02/07 15:59:24;;;;;;;3.30;2.50;;;;;;;9.45;45.60;99853.88;6893429;28;20291;-81
2022/02/07 16:02:50;;;;;;;7.10;4.17;;;;;;;9.80;45.52;99872.25;6904860;28;20570;-81
2022/02/07 16:06:16;;;;;;;8.73;4.37;;;;;;;9.73;45.84;99867.72;6868409;28;20235;-82
2022/02/07 16:09:39;;;;;;;48.03;28.40;;;;;;;8.77;45.59;99751.47;6884070;28;20208;-81
2022/02/07 16:13:04;;;;;;;16.53;10.67;;;;;;;9.51;45.54;99863.13;6890672;28;20235;-81
2022/02/07 16:16:29;;;;;;;10.30;4.57;;;;;;;9.18;46.24;99869.56;6899731;28;20687;-82
2022/02/07 16:19:52;;;;;;;8.47;5.20;;;;;;;8.82;46.51;99870.09;6888137;28;20303;-80
2022/02/07 16:23:13;;;;;;;13.17;6.23;;;;;;;9.17;46.51;99875.97;6897409;28;20220;-83
2022/02/07 16:26:35;;;;;;;6.90;3.50;;;;;;;9.02;46.66;99874.97;6890679;28;20260;-82
2022/02/07 16:29:56;;;;;;;6.47;3.53;;;;;;;9.26;46.46;99883.84;6895217;28;20239;-84
2022/02/07 16:33:18;;;;;;;6.47;4.17;;;;;;;8.99;46.94;99867.25;6881195;28;20224;-81
2022/02/07 16:36:41;;;;;;;8.63;4.10;;;;;;;9.13;46.81;99889.94;6877407;28;20203;-81
2022/02/07 16:40:03;;;;;;;9.30;5.47;;;;;;;8.77;47.15;99893.97;6873578;28;20247;-81
2022/02/07 16:43:28;;;;;;;7.03;5.30;;;;;;;8.79;48.00;99898.16;6882523;28;20232;-82
2022/02/07 16:46:51;;;;;;;11.27;5.00;;;;;;;8.42;47.51;99838.66;6890282;28;20228;-81
2022/02/07 16:50:15;;;;;;;12.17;5.00;;;;;;;8.67;47.48;99904.03;6892128;28;20213;-82
2022/02/07 16:53:38;;;;;;;10.43;4.10;;;;;;;8.60;47.31;99917.28;6893866;28;20220;-85
2022/02/07 16:57:00;;;;;;;12.07;4.30;;;;;;;8.75;47.05;99906.72;6892211;28;20741;-83
2022/02/07 17:00:23;;;;;;;10.97;6.10;;;;;;;9.03;46.49;99912.44;6892325;28;20307;-82
2022/02/07 17:03:44;;;;;;;11.37;5.10;;;;;;;8.98;46.52;99901.34;6891270;28;20209;-81
2022/02/07 17:07:06;;;;;;;9.43;4.03;;;;;;;8.69;46.16;99865.22;6891962;28;20259;-82
2022/02/07 17:10:29;;;;;;;10.93;4.00;;;;;;;8.85;46.36;99916.31;6889323;28;20963;-80
2022/02/07 17:13:51;;;;;;;14.37;4.20;;;;;;;9.02;46.26;99932.31;6865784;28;20205;-80
2022/02/07 17:17:12;;;;;;;7.77;4.40;;;;;;;8.99;46.45;99924.56;6865573;28;20212;-81
2022/02/07 17:20:34;;;;;;;9.87;4.50;;;;;;;8.91;46.21;99915.63;6865317;28;20237;-82
2022/02/07 17:23:56;;;;;;;7.43;4.77;;;;;;;8.55;47.09;99935.75;6864355;28;20294;-81
2022/02/07 17:27:18;;;;;;;10.33;4.03;;;;;;;8.63;46.50;99951.06;6864960;28;20225;-81
2022/02/07 17:30:41;;;;;;;6.53;3.60;;;;;;;8.62;47.32;99939.50;6882013;28;20254;-81
2022/02/07 17:34:02;;;;;;;7.43;3.40;;;;;;;8.35;46.60;99895.91;6879586;28;20226;-81
2022/02/07 17:37:26;;;;;;;7.43;3.60;;;;;;;8.83;45.58;99920.19;6874680;28;20794;-81
2022/02/07 17:40:49;;;;;;;10.43;3.67;;;;;;;8.78;46.21;99952.94;6884753;28;20782;-79
2022/02/07 17:44:12;;;;;;;8.70;4.13;;;;;;;8.86;46.37;99970.94;6880766;28;20263;-79
2022/02/07 17:47:34;;;;;;;9.33;4.10;;;;;;;9.18;45.63;99963.75;6871527;28;20238;-80
2022/02/07 17:50:57;;;;;;;11.17;3.60;;;;;;;9.16;45.82;99957.69;6863856;28;20267;-80
2022/02/07 17:54:21;;;;;;;6.90;3.13;;;;;;;8.66;46.29;99956.13;6866026;28;20243;-80
2022/02/07 17:57:43;;;;;;;6.30;2.83;;;;;;;9.15;45.77;99982.94;6889944;28;20246;-80
2022/02/07 18:01:06;;;;;;;4.90;3.23;;;;;;;8.77;46.68;99983.53;6890590;28;20231;-80
2022/02/07 18:04:28;;;;;;;5.57;2.80;;;;;;;8.87;45.70;99930.44;6889912;28;20254;-82
2022/02/07 18:07:49;;;;;;;6.70;2.90;;;;;;;9.07;46.12;99994.53;6890024;28;20232;-79
2022/02/07 18:11:11;;;;;;;11.27;4.30;;;;;;;8.91;46.20;99985.56;6900489;28;20260;-80
2022/02/07 18:14:33;;;;;;;7.43;3.13;;;;;;;8.97;46.00;100008.28;6902309;28;20210;-80
2022/02/07 18:17:56;;;;;;;11.67;3.50;;;;;;;9.25;44.59;99987.13;6906068;28;20278;-85
2022/02/07 18:21:23;;;;;;;9.13;3.20;;;;;;;8.99;45.66;100004.44;6919514;28;20286;-83
2022/02/07 18:24:46;;;;;;;6.60;3.30;;;;;;;8.87;45.53;100007.59;6918881;28;20666;-83
2022/02/07 18:28:09;;;;;;;12.40;4.43;;;;;;;8.99;46.04;100023.25;6909649;28;20231;-81
2022/02/07 18:31:31;;;;;;;6.30;4.73;;;;;;;9.15;45.36;100016.03;6894177;28;20237;-85
2022/02/07 18:34:54;;;;;;;16.93;9.03;;;;;;;9.20;45.27;100016.38;6901960;28;20212;-84
2022/02/07 18:38:18;;;;;;;8.20;4.97;;;;;;;8.96;45.99;100036.19;6898811;28;20208;-84
2022/02/07 18:41:47;;;;;;;5.03;3.53;;;;;;;9.01;45.64;100032.00;6902320;28;20232;-85
2022/02/07 18:45:12;;;;;;;8.50;4.00;;;;;;;9.17;45.50;100027.47;6889745;28;20211;-83
2022/02/07 18:48:36;;;;;;;8.23;4.17;;;;;;;8.90;45.20;100009.97;6905159;28;20231;-84
2022/02/07 18:51:59;;;;;;;7.47;3.57;;;;;;;8.93;45.43;100040.06;6913342;28;20224;-83
2022/02/07 18:55:24;;;;;;;11.27;3.00;;;;;;;8.93;45.33;100042.75;6889927;28;20211;-85
2022/02/07 18:58:57;;;;;;;9.50;3.30;;;;;;;8.92;45.35;100027.63;6892379;28;20196;-82
2022/02/07 19:02:27;;;;;;;9.47;4.80;;;;;;;9.16;45.18;100047.31;6891916;28;20714;-83
2022/02/07 19:06:04;;;;;;;5.57;3.87;;;;;;;8.71;45.94;100047.91;6889939;28;20192;-83
2022/02/07 19:09:27;;;;;;;9.40;3.30;;;;;;;8.56;45.93;100062.94;6896580;28;20185;-84
2022/02/07 19:12:49;;;;;;;7.40;3.67;;;;;;;8.73;45.77;100057.47;6895735;28;20274;-84
2022/02/07 19:16:11;;;;;;;5.93;3.60;;;;;;;8.69;45.03;99982.69;6896141;28;20346;-83
2022/02/07 19:19:34;;;;;;;8.67;5.40;;;;;;;9.12;45.28;100018.22;6895991;28;20215;-85
2022/02/07 19:22:58;;;;;;;8.00;3.30;;;;;;;9.25;44.49;100048.16;6877772;28;20264;-83
2022/02/07 19:26:26;;;;;;;5.73;2.93;;;;;;;9.30;44.94;100037.75;6881617;28;20216;-84
2022/02/07 19:29:53;;;;;;;7.77;3.47;;;;;;;9.00;44.95;100041.06;6901233;28;20285;-82
2022/02/07 19:33:17;;;;;;;10.53;3.20;;;;;;;9.26;44.99;100045.31;6893546;28;20232;-81
2022/02/07 19:36:38;;;;;;;8.13;4.13;;;;;;;8.74;45.15;100039.50;6897547;28;20652;-83
2022/02/07 19:40:00;;;;;;;8.03;3.50;;;;;;;8.85;45.53;100061.53;6882509;28;20200;-81
2022/02/07 19:43:24;;;;;;;5.37;3.07;;;;;;;8.95;45.15;100046.09;6883049;28;20218;-82
2022/02/07 19:46:47;;;;;;;7.10;3.20;;;;;;;9.25;44.46;100045.47;6893078;28;20227;-83
2022/02/07 19:50:10;;;;;;;7.93;3.23;;;;;;;8.67;44.78;99982.00;6892307;28;20214;-82
2022/02/07 19:53:33;;;;;;;9.37;3.17;;;;;;;8.44;45.45;99979.06;6903009;28;20202;-81
2022/02/07 19:56:55;;;;;;;7.57;3.53;;;;;;;9.37;44.66;100071.91;6893890;28;20255;-82
2022/02/07 20:00:19;;;;;;;4.27;2.77;;;;;;;9.13;44.75;100063.81;6921597;28;20258;-81
2022/02/07 20:03:41;;;;;;;4.07;2.47;;;;;;;8.67;45.55;100068.88;6921175;28;20199;-82
2022/02/07 20:07:03;;;;;;;9.37;3.80;;;;;;;8.89;45.42;100083.59;6921314;28;20707;-82
2022/02/07 20:10:30;;;;;;;6.47;2.97;;;;;;;9.12;44.76;100090.88;6921660;28;20219;-82
2022/02/07 20:13:52;;;;;;;6.53;2.93;;;;;;;8.66;46.12;100080.63;6921811;28;20696;-81
2022/02/07 20:17:19;;;;;;;5.67;3.07;;;;;;;8.41;46.52;100103.03;6893648;28;20299;-81
2022/02/07 20:20:41;;;;;;;10.23;3.17;;;;;;;8.55;46.59;100101.59;6873400;28;20268;-82
2022/02/07 20:24:03;;;;;;;7.20;3.30;;;;;;;8.39;46.36;100078.16;6881563;28;20219;-81
2022/02/07 20:27:26;;;;;;;7.80;3.43;;;;;;;8.20;47.04;100093.66;6895511;28;20351;-81
2022/02/07 20:30:51;;;;;;;5.53;3.97;;;;;;;8.44;47.14;100104.56;6902054;28;20227;-81
2022/02/07 20:34:15;;;;;;;8.07;4.43;;;;;;;8.24;46.75;100130.81;6901385;28;20204;-81
2022/02/07 20:37:38;;;;;;;7.00;3.00;;;;;;;8.09;46.94;100115.38;6894460;28;20207;-81
2022/02/07 20:41:00;;;;;;;7.13;3.30;;;;;;;8.52;46.35;100121.56;6871138;28;20229;-81
2022/02/07 20:44:22;;;;;;;3.63;3.00;;;;;;;8.49;46.40;100132.63;6867140;28;20242;-81
2022/02/07 20:47:47;;;;;;;9.83;3.43;;;;;;;8.07;46.84;100131.66;6867629;28;20243;-82
2022/02/07 20:51:10;;;;;;;6.30;3.10;;;;;;;8.59;46.32;100130.66;6868009;28;20646;-84
2022/02/07 20:54:32;;;;;;;8.87;3.70;;;;;;;8.70;45.53;100103.50;6868211;28;20209;-82
2022/02/07 20:57:54;;;;;;;5.87;3.80;;;;;;;8.06;45.79;100008.25;6869722;28;20251;-82
2022/02/07 21:01:18;;;;;;;12.13;3.63;;;;;;;8.54;46.14;100114.19;6867251;28;20576;-84
2022/02/07 21:04:43;;;;;;;7.77;4.13;;;;;;;8.44;46.76;100136.81;6866919;28;20266;-84
2022/02/07 21:08:20;;;;;;;9.10;4.33;;;;;;;8.33;47.33;100150.50;6866171;28;20689;-83
2022/02/07 21:11:44;;;;;;;7.53;4.70;;;;;;;8.52;46.85;100143.06;6866582;28;20733;-83
2022/02/07 21:15:08;;;;;;;6.33;4.37;;;;;;;8.05;48.31;100154.28;6866632;28;20219;-82
2022/02/07 21:18:29;;;;;;;7.97;4.87;;;;;;;7.95;48.50;100161.63;6865972;28;20344;-86
2022/02/07 21:21:51;;;;;;;14.60;4.83;;;;;;;7.61;48.66;100131.94;6865419;28;20240;-86
2022/02/07 21:25:14;;;;;;;12.13;4.47;;;;;;;7.50;49.79;100169.78;6866818;28;20228;-90
2022/02/07 21:28:36;;;;;;;9.83;3.97;;;;;;;7.35;50.33;100155.19;6901734;28;20239;-84
2022/02/07 21:31:57;;;;;;;8.87;4.30;;;;;;;7.61;48.19;100098.91;6893022;28;20383;-84
2022/02/07 21:35:22;;;;;;;6.47;4.03;;;;;;;7.53;48.84;100169.47;6892460;28;20202;-83
2022/02/07 21:55:54;;;;;;;8.87;4.27;;;;;;;7.18;50.10;100179.31;6890320;28;20190;-85
2022/02/07 21:59:16;;;;;;;10.13;4.43;;;;;;;7.31;49.50;100159.16;6892157;28;20269;-85
